Weather Station Data

Station Data Captured at Five Minute Intervals Since Midnight Local Time


Date Time Temp. RH % Dew Pt. Wind Speed Wind Dir. Peak Wind Wind Chill Pressure Precip. Solar W/m2 ET
8/12/20 10:45a 78.7 76 70.5 0.0 NW 2.0 78.7 30.040 0.00 262 0.000
8/12/20 10:40a 78.4 76 70.2 0.0 NW 1.0 78.4 30.040 0.00 239 0.000
8/12/20 10:35a 78.1 76 69.9 0.0 NW 2.0 78.1 30.038 0.00 211 0.000
8/12/20 10:30a 78.0 77 70.2 0.0 NW 2.0 78.0 30.036 0.00 244 0.000
8/12/20 10:25a 77.6 77 69.8 1.0 NW 3.0 77.6 30.039 0.00 253 0.000
8/12/20 10:20a 77.3 77 69.5 1.0 NW 2.0 77.3 30.037 0.00 251 0.000
8/12/20 10:15a 77.0 79 70.0 0.0 NW 1.0 77.0 30.034 0.00 204 0.000
8/12/20 10:10a 76.7 79 69.7 0.0 --- 0.0 76.7 30.036 0.00 226 0.000
8/12/20 10:05a 76.2 80 69.6 0.0 NW 1.0 76.2 30.039 0.00 202 0.000
8/12/20 10:00a 75.9 81 69.6 0.0 NW 2.0 75.9 30.040 0.00 173 0.003
8/12/20 9:55a 75.6 82 69.7 0.0 WNW 1.0 75.6 30.037 0.00 149 0.000
8/12/20 9:50a 75.2 82 69.3 0.0 WNW 2.0 75.2 30.040 0.00 155 0.000
8/12/20 9:45a 74.8 83 69.3 0.0 WNW 3.0 74.8 30.039 0.00 145 0.000
8/12/20 9:40a 74.4 84 69.2 0.0 WNW 2.0 74.4 30.039 0.00 160 0.000
8/12/20 9:35a 74.0 85 69.2 0.0 --- 0.0 74.0 30.039 0.00 145 0.000
8/12/20 9:30a 73.8 85 69.0 0.0 WNW 2.0 73.8 30.041 0.00 121 0.000
8/12/20 9:25a 73.6 86 69.2 0.0 WNW 1.0 73.6 30.039 0.00 129 0.000
8/12/20 9:20a 73.2 86 68.8 1.0 WNW 3.0 73.2 30.039 0.00 156 0.000
8/12/20 9:15a 73.0 86 68.6 0.0 W 3.0 73.0 30.037 0.00 115 0.000
8/12/20 9:10a 72.7 86 68.3 0.0 W 1.0 72.7 30.036 0.00 78 0.000
8/12/20 9:05a 72.5 87 68.4 0.0 W 1.0 72.5 30.037 0.00 76 0.000
8/12/20 9:00a 72.2 87 68.1 0.0 W 2.0 72.2 30.038 0.00 73 0.002
8/12/20 8:55a 71.9 87 67.8 0.0 --- 0.0 71.9 30.039 0.00 79 0.000
8/12/20 8:50a 71.6 87 67.5 0.0 W 1.0 71.6 30.038 0.00 81 0.000
8/12/20 8:45a 71.3 87 67.2 0.0 W 1.0 71.3 30.036 0.00 84 0.000
8/12/20 8:40a 71.0 87 66.9 0.0 --- 0.0 71.0 30.036 0.00 80 0.000
8/12/20 8:35a 70.6 87 66.5 0.0 W 1.0 70.6 30.035 0.00 80 0.000
8/12/20 8:30a 70.4 87 66.3 0.0 --- 0.0 70.4 30.036 0.00 75 0.000
8/12/20 8:25a 70.1 87 66.0 0.0 W 1.0 70.1 30.036 0.00 69 0.000
8/12/20 8:20a 69.8 87 65.8 0.0 --- 0.0 69.8 30.034 0.00 67 0.000
8/12/20 8:15a 69.5 87 65.5 0.0 --- 0.0 69.5 30.032 0.00 63 0.000
8/12/20 8:10a 69.1 87 65.1 0.0 --- 0.0 69.1 30.032 0.00 60 0.000
8/12/20 8:05a 68.9 87 64.9 0.0 --- 0.0 68.9 30.032 0.00 54 0.000
8/12/20 8:00a 68.7 87 64.7 0.0 --- 0.0 68.7 30.030 0.00 46 0.001
8/12/20 7:55a 68.5 87 64.5 0.0 --- 0.0 68.5 30.028 0.00 41 0.000
8/12/20 7:50a 68.3 87 64.3 0.0 --- 0.0 68.3 30.030 0.00 37 0.000
8/12/20 7:45a 68.1 87 64.1 0.0 --- 0.0 68.1 30.030 0.00 34 0.000
8/12/20 7:40a 68.0 87 64.0 0.0 --- 1.0 68.0 30.031 0.00 33 0.000
8/12/20 7:35a 67.8 87 63.8 0.0 W 1.0 67.8 30.028 0.00 32 0.000
8/12/20 7:30a 67.7 86 63.4 0.0 --- 0.0 67.7 30.027 0.00 27 0.000
8/12/20 7:25a 67.6 86 63.3 0.0 --- 0.0 67.6 30.027 0.00 23 0.000
8/12/20 7:20a 67.5 86 63.2 0.0 --- 0.0 67.5 30.024 0.00 18 0.000
8/12/20 7:15a 67.4 86 63.1 0.0 --- 0.0 67.4 30.023 0.00 14 0.000
8/12/20 7:10a 67.5 86 63.2 0.0 --- 0.0 67.5 30.024 0.00 11 0.000
8/12/20 7:05a 67.5 86 63.2 0.0 --- 0.0 67.5 30.020 0.00 8 0.000
8/12/20 7:00a 67.5 86 63.2 0.0 --- 0.0 67.5 30.022 0.00 5 0.000
8/12/20 6:55a 67.6 86 63.3 0.0 --- 0.0 67.6 30.017 0.00 0 0.000
8/12/20 6:50a 67.7 86 63.4 0.0 --- 0.0 67.7 30.016 0.00 0 0.000
8/12/20 6:45a 67.8 86 63.5 0.0 --- 0.0 67.8 30.016 0.00 0 0.000
8/12/20 6:40a 67.8 86 63.5 0.0 --- 0.0 67.8 30.013 0.00 0 0.000
8/12/20 6:35a 67.8 86 63.5 0.0 --- 0.0 67.8 30.012 0.00 0 0.000
8/12/20 6:30a 67.8 86 63.5 0.0 --- 0.0 67.8 30.011 0.00 0 0.000
8/12/20 6:25a 67.9 86 63.6 0.0 --- 0.0 67.9 30.010 0.00 0 0.000
8/12/20 6:20a 68.0 86 63.7 0.0 --- 0.0 68.0 30.011 0.00 0 0.000
8/12/20 6:15a 68.0 86 63.7 0.0 --- 0.0 68.0 30.011 0.00 0 0.000
8/12/20 6:10a 68.0 86 63.7 0.0 --- 0.0 68.0 30.010 0.00 0 0.000
8/12/20 6:05a 68.1 86 63.8 0.0 --- 0.0 68.1 30.010 0.00 0 0.000
8/12/20 6:00a 68.1 86 63.8 0.0 --- 0.0 68.1 30.013 0.00 0 0.001
8/12/20 5:55a 68.1 86 63.8 0.0 --- 0.0 68.1 30.011 0.00 0 0.000
8/12/20 5:50a 68.1 86 63.8 0.0 --- 0.0 68.1 30.010 0.00 0 0.000
8/12/20 5:45a 68.1 86 63.8 0.0 --- 0.0 68.1 30.009 0.00 0 0.000
8/12/20 5:40a 68.3 86 63.9 0.0 --- 0.0 68.3 30.007 0.00 0 0.000
8/12/20 5:35a 68.3 86 63.9 0.0 --- 0.0 68.3 30.005 0.00 0 0.000
8/12/20 5:30a 68.4 86 64.0 0.0 --- 0.0 68.4 30.005 0.00 0 0.000
8/12/20 5:25a 68.5 86 64.1 0.0 --- 0.0 68.5 30.002 0.00 0 0.000
8/12/20 5:20a 68.5 86 64.1 0.0 --- 0.0 68.5 30.001 0.00 0 0.000
8/12/20 5:15a 68.4 86 64.0 0.0 --- 0.0 68.4 29.998 0.00 0 0.000
8/12/20 5:10a 68.4 86 64.0 0.0 --- 0.0 68.4 29.996 0.00 0 0.000
8/12/20 5:05a 68.4 86 64.0 0.0 --- 0.0 68.4 29.995 0.00 0 0.000
8/12/20 5:00a 68.4 86 64.0 0.0 --- 0.0 68.4 29.993 0.00 0 0.001
8/12/20 4:55a 68.5 86 64.1 0.0 --- 0.0 68.5 29.994 0.00 0 0.000
8/12/20 4:50a 68.5 86 64.1 0.0 --- 0.0 68.5 29.993 0.00 0 0.000
8/12/20 4:45a 68.5 86 64.1 0.0 --- 0.0 68.5 29.992 0.00 0 0.000
8/12/20 4:40a 68.5 86 64.1 0.0 --- 0.0 68.5 29.991 0.00 0 0.000
8/12/20 4:35a 68.6 86 64.2 0.0 --- 0.0 68.6 29.989 0.00 0 0.000
8/12/20 4:30a 68.6 86 64.2 0.0 --- 0.0 68.6 29.990 0.00 0 0.000
8/12/20 4:25a 68.8 86 64.4 0.0 --- 0.0 68.8 29.989 0.00 0 0.000
8/12/20 4:20a 68.8 86 64.4 0.0 --- 0.0 68.8 29.989 0.00 0 0.000
8/12/20 4:15a 68.8 86 64.4 0.0 --- 0.0 68.8 29.989 0.00 0 0.000
8/12/20 4:10a 68.8 86 64.4 0.0 --- 0.0 68.8 29.989 0.00 0 0.000
8/12/20 4:05a 68.9 85 64.2 0.0 --- 0.0 68.9 29.991 0.00 0 0.000
8/12/20 4:00a 69.0 85 64.3 0.0 --- 0.0 69.0 29.993 0.00 0 0.001
8/12/20 3:55a 69.0 85 64.3 0.0 --- 0.0 69.0 29.993 0.00 0 0.000
8/12/20 3:50a 69.1 85 64.4 0.0 --- 0.0 69.1 29.993 0.00 0 0.000
8/12/20 3:45a 69.2 85 64.5 0.0 --- 0.0 69.2 29.990 0.00 0 0.000
8/12/20 3:40a 69.2 86 64.8 0.0 --- 0.0 69.2 29.989 0.00 0 0.000
8/12/20 3:35a 69.3 85 64.6 0.0 --- 0.0 69.3 29.990 0.00 0 0.000
8/12/20 3:30a 69.4 85 64.7 0.0 --- 0.0 69.4 29.989 0.00 0 0.000
8/12/20 3:25a 69.4 85 64.7 0.0 --- 0.0 69.4 29.991 0.00 0 0.000
8/12/20 3:20a 69.5 85 64.8 0.0 --- 0.0 69.5 29.989 0.00 0 0.000
8/12/20 3:15a 69.5 85 64.8 0.0 --- 0.0 69.5 29.987 0.00 0 0.000
8/12/20 3:10a 69.6 85 64.9 0.0 --- 0.0 69.6 29.990 0.00 0 0.000
8/12/20 3:05a 69.7 85 65.0 0.0 --- 0.0 69.7 29.990 0.00 0 0.000
8/12/20 3:00a 69.8 85 65.1 0.0 --- 0.0 69.8 29.992 0.00 0 0.001
8/12/20 2:55a 69.9 85 65.2 0.0 --- 0.0 69.9 29.994 0.00 0 0.000
8/12/20 2:50a 69.9 85 65.2 0.0 --- 0.0 69.9 29.993 0.00 0 0.000
8/12/20 2:45a 69.8 85 65.1 0.0 --- 0.0 69.8 29.994 0.00 0 0.000
8/12/20 2:40a 69.9 85 65.2 0.0 --- 0.0 69.9 29.992 0.00 0 0.000
8/12/20 2:35a 70.0 85 65.3 0.0 --- 0.0 70.0 29.994 0.00 0 0.000
8/12/20 2:30a 70.1 85 65.4 0.0 --- 0.0 70.1 29.995 0.00 0 0.000
8/12/20 2:25a 70.2 85 65.5 0.0 --- 0.0 70.2 29.995 0.00 0 0.000
8/12/20 2:20a 70.3 84 65.2 0.0 --- 0.0 70.3 29.995 0.00 0 0.000
8/12/20 2:15a 70.3 84 65.2 0.0 --- 0.0 70.3 29.995 0.00 0 0.000
8/12/20 2:10a 70.4 84 65.3 0.0 --- 0.0 70.4 29.996 0.00 0 0.000
8/12/20 2:05a 70.4 84 65.3 0.0 --- 0.0 70.4 29.996 0.00 0 0.000
8/12/20 2:00a 70.5 84 65.4 0.0 --- 0.0 70.5 29.992 0.00 0 0.001
8/12/20 1:55a 70.6 84 65.5 0.0 --- 0.0 70.6 29.994 0.00 0 0.000
8/12/20 1:50a 70.7 84 65.6 0.0 --- 0.0 70.7 29.992 0.00 0 0.000
8/12/20 1:45a 70.8 84 65.7 0.0 --- 0.0 70.8 29.995 0.00 0 0.000
8/12/20 1:40a 70.9 84 65.8 0.0 --- 0.0 70.9 29.994 0.00 0 0.000
8/12/20 1:35a 71.0 84 65.9 0.0 --- 0.0 71.0 29.997 0.00 0 0.000
8/12/20 1:30a 71.0 84 65.9 0.0 --- 0.0 71.0 29.992 0.00 0 0.000
8/12/20 1:25a 71.0 84 65.9 0.0 --- 0.0 71.0 29.994 0.00 0 0.000
8/12/20 1:20a 71.0 84 65.9 0.0 --- 0.0 71.0 29.994 0.00 0 0.000
8/12/20 1:15a 71.0 84 65.9 0.0 --- 0.0 71.0 29.992 0.00 0 0.000
8/12/20 1:10a 71.1 84 66.0 0.0 --- 0.0 71.1 29.991 0.00 0 0.000
8/12/20 1:05a 71.2 84 66.1 0.0 --- 0.0 71.2 29.989 0.00 0 0.000
8/12/20 1:00a 71.3 84 66.2 0.0 --- 0.0 71.3 29.987 0.00 0 0.001
8/12/20 12:55a 71.3 84 66.2 0.0 --- 0.0 71.3 29.987 0.00 0 0.000
8/12/20 12:50a 71.4 84 66.3 0.0 --- 0.0 71.4 29.990 0.00 0 0.000
8/12/20 12:45a 71.4 84 66.3 0.0 --- 0.0 71.4 29.992 0.00 0 0.000
8/12/20 12:40a 71.4 84 66.3 0.0 --- 0.0 71.4 29.992 0.00 0 0.000
8/12/20 12:35a 71.5 83 66.1 0.0 --- 0.0 71.5 29.992 0.00 0 0.000
8/12/20 12:30a 71.6 83 66.2 0.0 --- 0.0 71.6 29.993 0.00 0 0.000
8/12/20 12:25a 71.7 83 66.3 0.0 --- 0.0 71.7 29.992 0.00 0 0.000
8/12/20 12:20a 71.8 83 66.4 0.0 --- 0.0 71.8 29.991 0.00 0 0.000
8/12/20 12:15a 72.0 83 66.6 0.0 --- 0.0 72.0 29.990 0.00 0 0.000
8/12/20 12:10a 72.1 82 66.3 0.0 --- 0.0 72.1 29.990 0.00 0 0.000
8/12/20 12:05a 72.2 82 66.4 0.0 --- 0.0 72.2 29.986 0.00 0 0.000
8/12/20 12:00a 72.3 82 66.5 0.0 --- 0.0 72.3 29.985 0.00 0 0.001

13,639 Page Views